Time;durP1;ratioP1;P1;durP2;ratioP2;P2;SDS_P1;SDS_P2;PMS_P1;PMS_P2;Temp;Humidity;BMP_temperature;BMP_pressure;BME280_temperature;BME280_humidity;BME280_pressure;Samples;Min_cycle;Max_cycle;Signal;HPM_P1;HPM_P2
2021/03/21 00:01:53;;;;;;;31.90;21.58;;;7.10;88.20;;;;;;5095120;28;20032;-78
2021/03/21 00:04:22;;;;;;;30.77;20.70;;;7.20;88.70;;;;;;5095879;28;20401;-79
2021/03/21 00:06:48;;;;;;;34.97;23.05;;;7.20;89.10;;;;;;5095540;28;20032;-78
2021/03/21 00:09:14;;;;;;;34.05;22.20;;;7.10;89.10;;;;;;5094851;28;20028;-78
2021/03/21 00:11:39;;;;;;;33.20;22.00;;;7.10;89.40;;;;;;5094745;28;20463;-78
2021/03/21 00:14:06;;;;;;;36.13;22.13;;;7.10;90.00;;;;;;5094572;28;20039;-78
2021/03/21 00:16:32;;;;;;;32.35;21.50;;;7.00;90.00;;;;;;5075645;28;20401;-78
2021/03/21 00:18:58;;;;;;;33.63;21.50;;;7.00;90.10;;;;;;5088789;28;20115;-78
2021/03/21 00:21:24;;;;;;;32.90;21.15;;;7.00;90.20;;;;;;5095870;28;20111;-78
2021/03/21 00:23:50;;;;;;;27.10;19.05;;;6.90;90.40;;;;;;5075906;28;20450;-78
2021/03/21 00:26:16;;;;;;;30.83;20.95;;;6.90;90.40;;;;;;5094491;28;20093;-78
2021/03/21 00:28:41;;;;;;;28.58;19.77;;;6.90;90.50;;;;;;5077352;28;20040;-78
2021/03/21 00:31:09;;;;;;;26.25;19.17;;;6.90;90.70;;;;;;5094210;28;20024;-78
2021/03/21 00:33:37;;;;;;;32.70;21.58;;;6.90;90.60;;;;;;5077342;28;20039;-78
2021/03/21 00:36:04;;;;;;;26.52;19.17;;;6.90;90.60;;;;;;5093964;28;20035;-78
2021/03/21 00:38:37;;;;;;;32.95;20.52;;;6.80;90.60;;;;;;5094715;28;20047;-78
2021/03/21 00:41:04;;;;;;;25.42;18.45;;;6.80;90.90;;;;;;5093168;28;20020;-78
2021/03/21 00:43:30;;;;;;;29.45;19.27;;;6.80;90.90;;;;;;5095242;28;20008;-78
2021/03/21 00:45:56;;;;;;;20.92;16.00;;;6.80;90.90;;;;;;5094804;28;20032;-78
2021/03/21 00:48:36;;;;;;;21.23;15.90;;;6.80;90.80;;;;;;5092646;28;20044;-78
2021/03/21 00:51:02;;;;;;;24.00;16.42;;;6.90;90.70;;;;;;5094313;28;20024;-78
2021/03/21 00:53:28;;;;;;;22.90;16.55;;;6.90;90.50;;;;;;5099722;28;20054;-78
2021/03/21 00:55:53;;;;;;;21.15;15.85;;;7.00;90.40;;;;;;5097464;28;20052;-78
2021/03/21 00:58:20;;;;;;;25.38;16.42;;;7.00;90.50;;;;;;5093403;28;20099;-78
2021/03/21 01:00:49;;;;;;;25.52;17.55;;;7.00;90.50;;;;;;5094551;28;20524;-78
2021/03/21 01:03:15;;;;;;;28.40;19.15;;;7.00;90.60;;;;;;5093709;28;20024;-78
2021/03/21 01:05:51;;;;;;;25.30;16.40;;;6.90;90.60;;;;;;5093429;28;20435;-78
2021/03/21 01:08:33;;;;;;;24.25;17.98;;;6.90;90.70;;;;;;5093241;28;20024;-78
2021/03/21 01:11:02;;;;;;;31.92;20.52;;;6.90;90.70;;;;;;5082297;28;20020;-78
2021/03/21 01:13:28;;;;;;;29.35;19.48;;;6.90;90.80;;;;;;5094606;28;20081;-78
2021/03/21 01:15:54;;;;;;;28.10;18.58;;;6.80;90.80;;;;;;5094546;28;20044;-78
2021/03/21 01:18:23;;;;;;;34.95;20.50;;;6.80;91.00;;;;;;5094517;28;20023;-78
2021/03/21 01:20:49;;;;;;;25.00;17.63;;;6.70;91.10;;;;;;5094556;28;20550;-78
2021/03/21 01:23:15;;;;;;;25.80;17.80;;;6.70;91.10;;;;;;5093144;28;20058;-78
2021/03/21 01:25:41;;;;;;;27.85;19.40;;;6.70;91.10;;;;;;5093143;28;20377;-78
2021/03/21 01:28:35;;;;;;;28.75;19.02;;;6.70;91.20;;;;;;5076128;28;20039;-78
2021/03/21 01:31:03;;;;;;;34.88;20.13;;;6.70;91.30;;;;;;5093101;28;20036;-79
2021/03/21 01:33:32;;;;;;;25.67;18.75;;;6.70;91.40;;;;;;5092165;28;20473;-78
2021/03/21 01:35:58;;;;;;;25.30;18.27;;;6.70;91.30;;;;;;5092884;28;20035;-78
2021/03/21 01:38:24;;;;;;;32.38;20.42;;;6.70;91.20;;;;;;5091970;28;20024;-78
2021/03/21 01:40:54;;;;;;;24.63;17.98;;;6.70;91.30;;;;;;5075616;28;20089;-78
2021/03/21 01:43:27;;;;;;;29.65;18.90;;;6.70;91.20;;;;;;5094288;28;20024;-78
2021/03/21 01:45:52;;;;;;;30.42;19.38;;;6.70;91.40;;;;;;5094110;28;20024;-78
2021/03/21 01:48:43;;;;;;;32.75;19.45;;;6.70;91.40;;;;;;5125943;27;20447;-78
2021/03/21 01:51:18;;;;;;;35.45;21.10;;;6.70;91.50;;;;;;5134959;27;20023;-78
2021/03/21 01:53:46;;;;;;;33.35;18.73;;;6.70;91.50;;;;;;5116416;27;20023;-78
2021/03/21 01:56:13;;;;;;;38.80;21.42;;;6.70;91.50;;;;;;5134980;27;20027;-78
2021/03/21 01:58:39;;;;;;;27.52;18.55;;;6.70;91.50;;;;;;5134492;27;20027;-78
2021/03/21 02:01:23;;;;;;;29.88;18.00;;;6.70;91.50;;;;;;5134831;27;20088;-78
2021/03/21 02:03:48;;;;;;;31.10;19.58;;;6.70;91.50;;;;;;5116577;27;20412;-78
2021/03/21 02:06:45;;;;;;;33.70;20.15;;;6.70;91.50;;;;;;5134724;27;20110;-78
2021/03/21 02:09:35;;;;;;;37.72;21.08;;;6.70;91.50;;;;;;5127438;27;20019;-78
2021/03/21 02:12:19;;;;;;;29.15;19.05;;;6.70;91.50;;;;;;5134406;27;20024;-78
2021/03/21 02:14:58;;;;;;;35.50;21.75;;;6.60;91.60;;;;;;5134603;27;20090;-78
2021/03/21 02:17:36;;;;;;;32.17;20.08;;;6.60;91.60;;;;;;5116211;27;20062;-78
2021/03/21 02:20:40;;;;;;;38.10;21.73;;;6.60;91.70;;;;;;5095628;28;20369;-78
2021/03/21 02:23:27;;;;;;;34.83;21.35;;;6.60;91.80;;;;;;5125900;27;20050;-78
2021/03/21 02:26:05;;;;;;;37.90;23.30;;;6.60;91.80;;;;;;5134313;27;20034;-78
2021/03/21 02:28:45;;;;;;;41.15;22.98;;;6.60;91.80;;;;;;5134079;27;20398;-78
2021/03/21 02:31:20;;;;;;;37.25;22.75;;;6.60;91.80;;;;;;5134071;27;20012;-78
2021/03/21 02:34:41;;;;;;;38.72;22.10;;;6.50;91.90;;;;;;5134333;27;20027;-78
2021/03/21 02:37:25;;;;;;;44.47;23.67;;;6.60;92.00;;;;;;5130893;27;20039;-78
2021/03/21 02:40:01;;;;;;;38.78;22.83;;;6.60;92.00;;;;;;5133958;27;20518;-79
2021/03/21 02:42:32;;;;;;;36.50;22.63;;;6.60;91.90;;;;;;5115393;28;20027;-78
2021/03/21 02:45:08;;;;;;;34.05;22.85;;;6.50;92.00;;;;;;5134151;27;20446;-78
2021/03/21 02:47:34;;;;;;;49.50;25.27;;;6.50;92.10;;;;;;5129510;27;20081;-78
2021/03/21 02:50:08;;;;;;;52.97;26.45;;;6.50;92.10;;;;;;5130964;28;20023;-78
2021/03/21 02:52:50;;;;;;;38.45;22.63;;;6.50;92.20;;;;;;5115665;28;20068;-78
2021/03/21 02:55:38;;;;;;;45.45;24.63;;;6.50;92.30;;;;;;5109560;28;20464;-78
2021/03/21 02:58:29;;;;;;;37.53;21.83;;;6.50;92.30;;;;;;5132778;28;20035;-78
2021/03/21 03:01:18;;;;;;;46.63;25.33;;;6.50;92.30;;;;;;5121634;28;20357;-78
2021/03/21 03:03:48;;;;;;;46.13;23.60;;;6.50;92.30;;;;;;5121029;28;20080;-78
2021/03/21 03:06:15;;;;;;;;;;;6.50;92.30;;;;;;5133819;28;20027;-78
2021/03/21 03:08:53;;;;;;;46.33;24.10;;;6.50;92.30;;;;;;5114745;28;19908;-78
2021/03/21 03:11:29;;;;;;;43.90;23.90;;;6.50;92.70;;;;;;5133106;28;20144;-78
2021/03/21 03:13:59;;;;;;;49.72;24.17;;;6.50;92.40;;;;;;5132887;27;20023;-78
2021/03/21 03:16:31;;;;;;;44.63;24.25;;;6.50;92.50;;;;;;5132751;27;20028;-78
2021/03/21 03:19:11;;;;;;;35.05;21.67;;;6.40;92.50;;;;;;5131782;27;20030;-78
2021/03/21 03:21:54;;;;;;;45.60;23.70;;;6.50;92.50;;;;;;5127744;27;20084;-78
2021/03/21 03:24:44;;;;;;;39.97;22.67;;;6.50;92.50;;;;;;5132758;28;20031;-78
2021/03/21 03:27:41;;;;;;;35.80;20.58;;;6.50;92.50;;;;;;5132376;27;20078;-78
2021/03/21 03:30:11;;;;;;;38.63;21.40;;;6.50;92.50;;;;;;5098146;28;20040;-78
2021/03/21 03:32:37;;;;;;;40.38;22.63;;;6.50;92.50;;;;;;5130902;27;20035;-78
2021/03/21 03:35:05;;;;;;;38.25;21.33;;;6.50;92.50;;;;;;5133812;28;20026;-78
2021/03/21 03:37:31;;;;;;;34.20;20.08;;;6.60;92.50;;;;;;5115173;28;20118;-78
2021/03/21 03:39:57;;;;;;;47.08;24.88;;;6.60;92.50;;;;;;5115314;28;20107;-78
2021/03/21 03:42:32;;;;;;;41.85;22.98;;;6.60;92.50;;;;;;5133769;28;20049;-78
2021/03/21 03:45:26;;;;;;;35.45;21.65;;;6.50;92.50;;;;;;5133738;28;20096;-78
2021/03/21 03:48:04;;;;;;;43.92;23.40;;;6.50;92.60;;;;;;5133273;28;20502;-78
2021/03/21 03:50:55;;;;;;;45.97;23.90;;;6.50;92.60;;;;;;5127354;28;20062;-78
2021/03/21 03:53:35;;;;;;;37.70;21.75;;;6.50;92.80;;;;;;5113003;28;20051;-78
2021/03/21 03:56:15;;;;;;;45.33;23.88;;;6.50;92.80;;;;;;5118138;27;20032;-78
2021/03/21 03:58:57;;;;;;;46.50;23.77;;;6.50;92.80;;;;;;5136660;27;20059;-78
2021/03/21 04:01:46;;;;;;;40.15;22.75;;;6.40;92.90;;;;;;5137007;27;20019;-78
2021/03/21 04:04:23;;;;;;;45.70;24.88;;;6.50;92.90;;;;;;5136767;27;20023;-78
2021/03/21 04:07:21;;;;;;;39.75;21.15;;;6.40;92.90;;;;;;5118310;27;20031;-78
2021/03/21 04:10:01;;;;;;;49.28;24.90;;;6.40;93.00;;;;;;5131643;27;20035;-78
2021/03/21 04:12:30;;;;;;;56.75;27.05;;;6.40;93.10;;;;;;5135800;27;20011;-78
2021/03/21 04:15:08;;;;;;;45.78;24.33;;;6.50;93.00;;;;;;5136660;27;20115;-78
2021/03/21 04:17:43;;;;;;;57.88;27.00;;;6.40;93.10;;;;;;5117434;27;20027;-78
2021/03/21 04:20:27;;;;;;;38.50;21.00;;;6.40;93.00;;;;;;5136371;27;20414;-78
2021/03/21 04:23:15;;;;;;;58.20;27.13;;;6.50;93.00;;;;;;5117713;27;20023;-78
2021/03/21 04:25:46;;;;;;;39.05;18.73;;;6.50;93.00;;;;;;5115909;28;20458;-78
2021/03/21 04:28:20;;;;;;;55.10;26.50;;;6.50;93.00;;;;;;5111121;27;20121;-78
2021/03/21 04:30:53;;;;;;;56.58;29.00;;;6.50;93.00;;;;;;5136283;27;20102;-78
2021/03/21 04:33:25;;;;;;;59.08;27.58;;;6.50;93.10;;;;;;5136215;27;20353;-78
2021/03/21 04:35:57;;;;;;;57.08;27.80;;;6.50;93.10;;;;;;5136242;27;20045;-78
2021/03/21 04:38:41;;;;;;;48.92;25.50;;;6.50;93.10;;;;;;5117741;27;20397;-78
2021/03/21 04:41:10;;;;;;;55.65;27.02;;;6.50;93.10;;;;;;5136211;27;20027;-78
2021/03/21 04:43:47;;;;;;;;;;;6.50;93.20;;;;;;5123596;27;20459;-78
2021/03/21 04:46:20;;;;;;;54.10;27.10;;;6.50;93.10;;;;;;5117077;27;20328;-78
2021/03/21 04:48:46;;;;;;;52.58;26.48;;;6.50;93.20;;;;;;5102334;28;20580;-78
2021/03/21 04:51:18;;;;;;;63.35;30.08;;;6.50;93.30;;;;;;5076848;28;20059;-78
2021/03/21 04:53:50;;;;;;;63.58;29.05;;;6.50;93.30;;;;;;5094729;28;20048;-78
2021/03/21 04:56:37;;;;;;;61.33;30.13;;;6.50;93.30;;;;;;5075235;28;20024;-78
2021/03/21 04:59:15;;;;;;;59.92;28.02;;;6.50;93.30;;;;;;5054796;28;20085;-78
2021/03/21 05:02:17;;;;;;;67.60;29.63;;;6.50;93.30;;;;;;5078084;28;20016;-78
2021/03/21 05:04:58;;;;;;;59.30;26.83;;;6.50;93.40;;;;;;5092575;28;20032;-78
2021/03/21 05:07:38;;;;;;;70.13;31.00;;;6.50;93.40;;;;;;5093823;28;20056;-78
2021/03/21 05:10:15;;;;;;;77.43;32.95;;;6.50;93.40;;;;;;5079196;28;20048;-78
2021/03/21 05:12:48;;;;;;;66.35;29.58;;;6.50;93.70;;;;;;5094371;28;20027;-78
2021/03/21 05:15:21;;;;;;;76.80;32.22;;;6.60;93.50;;;;;;5112260;28;20027;-78
2021/03/21 05:18:11;;;;;;;63.65;29.23;;;6.50;93.50;;;;;;5105908;28;20047;-78
2021/03/21 05:20:58;;;;;;;68.40;29.67;;;6.50;93.60;;;;;;5074744;28;20473;-78
2021/03/21 05:23:52;;;;;;;77.05;29.77;;;6.50;93.60;;;;;;5093321;28;20028;-78
2021/03/21 05:26:59;;;;;;;59.80;25.88;;;6.50;93.60;;;;;;5073095;28;20380;-78
2021/03/21 05:29:59;;;;;;;82.63;30.45;;;6.50;93.60;;;;;;5071842;28;20027;-78
2021/03/21 05:32:25;;;;;;;62.65;27.98;;;6.50;93.70;;;;;;5089921;28;20469;-78
2021/03/21 05:34:55;;;;;;;58.30;26.90;;;6.50;93.70;;;;;;5088821;28;20032;-78
2021/03/21 05:37:20;;;;;;;;;;;6.50;93.70;;;;;;5107228;28;20055;-78
2021/03/21 05:40:01;;;;;;;70.85;29.73;;;6.50;93.70;;;;;;5097592;28;20422;-78
2021/03/21 05:43:03;;;;;;;69.75;30.48;;;6.50;93.70;;;;;;5073121;28;20024;-78
2021/03/21 05:45:44;;;;;;;77.20;31.58;;;6.60;93.70;;;;;;5075021;28;20039;-78
2021/03/21 05:48:34;;;;;;;78.18;32.65;;;6.60;93.80;;;;;;5084658;28;20044;-78
2021/03/21 05:51:23;;;;;;;83.43;32.85;;;6.60;93.80;;;;;;5093110;28;20020;-78
2021/03/21 05:54:00;;;;;;;85.05;33.45;;;6.60;93.90;;;;;;5092743;28;20016;-78
2021/03/21 05:56:46;;;;;;;70.32;30.15;;;6.60;93.90;;;;;;5092556;28;20036;-78
2021/03/21 05:59:17;;;;;;;65.97;29.63;;;6.60;94.00;;;;;;5090783;28;20388;-78
2021/03/21 06:02:13;;;;;;;75.35;31.45;;;6.60;93.90;;;;;;5093844;28;20111;-78
2021/03/21 06:05:13;;;;;;;73.70;31.50;;;6.70;93.90;;;;;;5094045;28;20091;-78
2021/03/21 06:08:00;;;;;;;77.78;34.05;;;6.70;93.90;;;;;;5093281;28;20543;-78
2021/03/21 06:10:37;;;;;;;81.30;32.83;;;6.70;93.90;;;;;;5091628;28;20077;-78
2021/03/21 06:13:12;;;;;;;76.32;32.33;;;6.70;93.90;;;;;;5093675;28;20020;-78
2021/03/21 06:15:55;;;;;;;83.15;34.35;;;6.70;93.90;;;;;;5093577;28;20098;-78
2021/03/21 06:18:47;;;;;;;72.00;32.45;;;6.70;93.90;;;;;;5073373;28;20029;-78
2021/03/21 06:21:28;;;;;;;69.03;32.33;;;6.70;93.80;;;;;;5072897;28;20041;-78
2021/03/21 06:24:21;;;;;;;62.88;31.13;;;6.80;93.80;;;;;;5092797;28;20031;-78
2021/03/21 06:27:14;;;;;;;56.03;28.65;;;6.80;93.70;;;;;;5090999;28;20032;-78
2021/03/21 06:29:48;;;;;;;54.83;29.08;;;6.80;93.70;;;;;;5080416;28;20541;-78
2021/03/21 06:32:20;;;;;;;54.10;28.70;;;6.80;93.30;;;;;;5092114;28;20032;-78
2021/03/21 06:35:21;;;;;;;52.80;28.42;;;6.80;93.10;;;;;;5093438;28;20024;-78
2021/03/21 06:38:05;;;;;;;54.60;28.58;;;6.80;93.20;;;;;;5093130;28;20054;-78
2021/03/21 06:41:06;;;;;;;51.35;27.65;;;6.80;93.10;;;;;;5091819;28;20032;-78
2021/03/21 06:44:02;;;;;;;48.42;28.50;;;6.90;93.00;;;;;;5089832;28;20028;-78
2021/03/21 06:46:49;;;;;;;52.97;30.23;;;7.00;92.90;;;;;;5091595;28;20492;-78
2021/03/21 06:49:56;;;;;;;53.72;32.17;;;6.90;92.50;;;;;;5126323;28;20047;-78
2021/03/21 06:52:31;;;;;;;48.05;28.85;;;6.90;92.50;;;;;;5101258;28;20026;-78
2021/03/21 06:55:07;;;;;;;49.42;29.08;;;6.90;92.50;;;;;;5134130;28;20034;-78
2021/03/21 06:58:08;;;;;;;53.50;26.77;;;7.00;92.40;;;;;;5134127;28;20203;-78
2021/03/21 07:00:56;;;;;;;44.45;24.13;;;7.00;92.30;;;;;;5100102;28;20061;-78
2021/03/21 07:03:42;;;;;;;41.33;24.48;;;7.00;92.10;;;;;;5134005;28;20106;-78
2021/03/21 07:06:36;;;;;;;32.05;18.42;;;7.00;92.30;;;;;;5114855;28;20115;-78
2021/03/21 07:09:24;;;;;;;32.42;18.33;;;7.10;91.80;;;;;;5133633;27;20031;-78
2021/03/21 07:12:00;;;;;;;31.30;17.25;;;7.10;91.60;;;;;;5134070;28;20046;-78
2021/03/21 07:14:43;;;;;;;30.35;18.42;;;7.10;91.50;;;;;;5132746;27;20442;-79
2021/03/21 07:17:44;;;;;;;31.88;16.98;;;7.10;91.20;;;;;;5130409;27;20523;-78
2021/03/21 07:20:51;;;;;;;27.67;16.27;;;7.10;91.20;;;;;;5115300;28;20039;-78
2021/03/21 07:23:35;;;;;;;25.13;13.38;;;7.10;91.10;;;;;;4994264;28;20037;-78
2021/03/21 07:26:43;;;;;;;25.80;13.55;;;7.20;90.90;;;;;;5023672;28;20033;-77
2021/03/21 07:29:21;;;;;;;23.38;13.13;;;7.20;90.80;;;;;;5116012;27;20031;-77
2021/03/21 07:32:11;;;;;;;23.25;12.50;;;7.20;90.40;;;;;;5137288;27;20027;-77
2021/03/21 07:34:58;;;;;;;22.00;12.25;;;7.20;90.20;;;;;;5135212;27;20436;-77
2021/03/21 07:37:27;;;;;;;21.08;11.30;;;7.30;90.30;;;;;;5117232;27;20030;-77
2021/03/21 07:40:18;;;;;;;13.80;6.13;;;7.30;90.20;;;;;;5136142;27;20049;-77
2021/03/21 07:42:47;;;;;;;22.17;8.38;;;7.30;89.60;;;;;;5150043;27;20261;-77
2021/03/21 07:45:19;;;;;;;19.30;9.33;;;7.30;88.90;;;;;;5118750;27;20051;-77
2021/03/21 07:47:59;;;;;;;19.48;9.07;;;7.40;89.00;;;;;;5117035;27;20047;-77
2021/03/21 07:50:25;;;;;;;17.05;7.63;;;7.40;89.10;;;;;;5118213;27;20062;-77
2021/03/21 07:53:09;;;;;;;15.95;7.07;;;7.40;89.40;;;;;;5136481;27;20432;-77
2021/03/21 07:55:53;;;;;;;15.80;7.43;;;7.40;89.20;;;;;;5130065;27;20098;-77
2021/03/21 07:58:27;;;;;;;15.90;6.85;;;7.50;88.80;;;;;;5118723;27;20072;-77
2021/03/21 08:00:54;;;;;;;19.85;8.10;;;7.40;88.80;;;;;;5118688;27;20511;-77
2021/03/21 08:03:42;;;;;;;17.70;7.72;;;7.40;89.20;;;;;;5118614;27;20023;-77
2021/03/21 08:06:26;;;;;;;16.63;8.17;;;7.50;89.50;;;;;;5118133;27;20050;-77
2021/03/21 08:09:03;;;;;;;12.77;8.70;;;7.50;89.70;;;;;;5117342;27;20031;-77
2021/03/21 08:11:31;;;;;;;15.77;5.97;;;7.50;90.00;;;;;;5127167;27;20023;-77
2021/03/21 08:14:12;;;;;;;17.13;8.02;;;7.60;87.90;;;;;;5135902;27;20068;-78
2021/03/21 08:16:44;;;;;;;17.85;8.23;;;7.60;88.50;;;;;;5117369;27;20053;-77
2021/03/21 08:19:14;;;;;;;18.95;7.90;;;7.60;88.40;;;;;;5131599;27;20475;-80
2021/03/21 08:21:40;;;;;;;14.68;5.53;;;7.60;88.60;;;;;;5136203;27;20031;-80
2021/03/21 08:24:16;;;;;;;10.25;4.22;;;7.60;88.20;;;;;;5136292;27;20031;-78
2021/03/21 08:26:44;;;;;;;9.13;3.67;;;7.60;87.40;;;;;;5111393;27;20532;-77
2021/03/21 08:29:14;;;;;;;17.23;3.25;;;7.70;86.80;;;;;;5121155;27;20038;-77
2021/03/21 08:31:46;;;;;;;15.23;2.90;;;7.70;85.90;;;;;;5149097;27;20018;-77
2021/03/21 08:34:47;;;;;;;10.27;2.47;;;7.70;85.10;;;;;;5151663;27;20018;-77
2021/03/21 08:37:25;;;;;;;11.75;2.30;;;7.70;85.10;;;;;;5150377;27;20034;-78
2021/03/21 08:40:21;;;;;;;9.40;2.33;;;7.70;83.60;;;;;;5150448;27;20479;-78
2021/03/21 08:42:50;;;;;;;15.98;2.33;;;7.70;82.80;;;;;;5149024;27;20022;-77
2021/03/21 08:45:33;;;;;;;17.08;3.20;;;7.70;81.70;;;;;;5129586;27;20049;-78
2021/03/21 08:48:04;;;;;;;10.55;2.55;;;7.70;82.00;;;;;;5148917;27;20506;-77
2021/03/21 08:50:40;;;;;;;11.70;2.35;;;7.80;82.30;;;;;;5149126;27;20102;-77
2021/03/21 08:53:27;;;;;;;13.88;2.30;;;7.80;82.50;;;;;;5151378;27;20011;-78
2021/03/21 08:56:30;;;;;;;9.63;2.03;;;8.00;81.60;;;;;;5131631;27;20368;-77
2021/03/21 08:59:20;;;;;;;13.60;2.10;;;8.10;81.30;;;;;;5027754;28;20103;-77
2021/03/21 09:02:01;;;;;;;13.18;2.17;;;8.20;81.50;;;;;;5128526;27;20053;-77
2021/03/21 09:04:27;;;;;;;15.77;3.35;;;8.20;79.30;;;;;;5150174;27;20027;-77
2021/03/21 09:06:53;;;;;;;21.73;2.53;;;8.20;77.50;;;;;;5115001;27;21037;-77
2021/03/21 09:09:45;;;;;;;11.65;2.33;;;8.20;75.70;;;;;;5132537;27;20076;-77
2021/03/21 09:12:27;;;;;;;15.13;2.55;;;8.10;75.90;;;;;;5130009;27;20612;-78
2021/03/21 09:15:16;;;;;;;16.02;2.28;;;8.00;76.80;;;;;;5130181;27;20140;-76
2021/03/21 09:17:44;;;;;;;14.52;2.65;;;8.00;77.80;;;;;;5130839;27;20026;-78
2021/03/21 09:20:16;;;;;;;19.83;2.80;;;8.20;77.40;;;;;;5128500;27;20042;-78
2021/03/21 09:22:42;;;;;;;15.52;2.20;;;8.20;76.20;;;;;;5145535;27;20102;-78
2021/03/21 09:25:14;;;;;;;19.95;2.97;;;8.20;76.90;;;;;;5127245;27;20026;-78
2021/03/21 09:27:43;;;;;;;10.95;2.03;;;8.20;75.70;;;;;;5129763;27;20056;-78
2021/03/21 09:30:17;;;;;;;10.47;1.83;;;8.30;76.30;;;;;;5127905;27;20356;-78
2021/03/21 09:32:43;;;;;;;12.73;2.25;;;8.30;76.10;;;;;;5147572;27;20026;-78
2021/03/21 09:35:29;;;;;;;14.30;2.40;;;8.40;75.10;;;;;;5113589;27;20019;-78
2021/03/21 09:37:56;;;;;;;11.45;1.90;;;8.40;75.70;;;;;;5129906;27;20073;-77
2021/03/21 09:40:27;;;;;;;14.80;2.20;;;8.50;74.90;;;;;;5148466;27;20027;-78
2021/03/21 09:42:53;;;;;;;23.90;2.20;;;8.60;74.40;;;;;;5129602;27;20379;-78
2021/03/21 09:45:19;;;;;;;18.33;2.13;;;8.70;73.20;;;;;;5130064;27;20067;-78
2021/03/21 09:48:12;;;;;;;18.38;2.70;;;8.70;73.20;;;;;;5113226;27;20498;-78
2021/03/21 09:50:51;;;;;;;18.15;2.70;;;8.70;72.90;;;;;;5130507;27;20481;-78
2021/03/21 09:53:35;;;;;;;20.77;2.70;;;8.70;72.70;;;;;;5128595;27;20474;-78
2021/03/21 09:56:15;;;;;;;16.98;2.40;;;8.60;73.10;;;;;;5130461;27;20503;-78
2021/03/21 09:59:09;;;;;;;14.30;2.60;;;8.70;74.30;;;;;;5131443;27;20023;-77
2021/03/21 10:01:56;;;;;;;16.85;3.08;;;8.70;74.10;;;;;;5133761;27;20067;-77
2021/03/21 10:04:45;;;;;;;18.23;2.17;;;8.70;73.60;;;;;;5131937;27;20421;-78
2021/03/21 10:07:53;;;;;;;15.13;2.10;;;8.70;74.00;;;;;;5133674;27;20039;-78
2021/03/21 10:10:43;;;;;;;17.00;2.63;;;8.80;73.40;;;;;;5014499;28;20030;-78
2021/03/21 10:13:09;;;;;;;19.67;2.83;;;8.80;72.30;;;;;;5131464;27;20035;-78
2021/03/21 10:16:12;;;;;;;20.90;2.67;;;8.90;72.70;;;;;;5099509;27;20071;-78
2021/03/21 10:18:46;;;;;;;22.83;3.25;;;8.90;71.80;;;;;;5109026;27;20023;-78
2021/03/21 10:21:29;;;;;;;24.50;3.42;;;8.90;70.80;;;;;;5134007;27;20030;-78
2021/03/21 10:23:58;;;;;;;28.35;3.00;;;8.80;70.00;;;;;;5134137;27;20034;-78
2021/03/21 10:26:29;;;;;;;21.67;3.35;;;8.70;69.50;;;;;;5115324;27;20068;-78
2021/03/21 10:29:00;;;;;;;26.13;3.63;;;8.70;69.70;;;;;;5133556;27;20027;-78
2021/03/21 10:31:35;;;;;;;19.83;3.15;;;8.70;70.90;;;;;;5133619;27;20026;-78
2021/03/21 10:34:04;;;;;;;25.92;4.72;;;8.70;70.10;;;;;;5114808;27;20019;-78
2021/03/21 10:36:41;;;;;;;20.23;3.17;;;8.80;69.10;;;;;;5115348;27;20023;-78
2021/03/21 10:39:25;;;;;;;22.33;3.75;;;8.80;67.50;;;;;;5133376;27;20030;-78
2021/03/21 10:41:56;;;;;;;15.48;3.20;;;8.80;68.70;;;;;;5133472;27;20027;-78
2021/03/21 10:44:43;;;;;;;24.73;3.55;;;8.80;68.30;;;;;;5114772;28;20095;-78
2021/03/21 10:47:22;;;;;;;23.50;3.90;;;8.90;68.50;;;;;;5114850;28;20038;-78
2021/03/21 10:49:54;;;;;;;29.63;4.57;;;9.10;68.40;;;;;;5131920;27;20104;-78
2021/03/21 10:52:37;;;;;;;30.45;4.13;;;9.20;69.80;;;;;;5110981;28;20023;-77
2021/03/21 10:55:12;;;;;;;27.65;4.15;;;9.20;66.80;;;;;;5113161;28;20106;-78
2021/03/21 10:57:44;;;;;;;23.65;3.65;;;9.20;67.00;;;;;;5112128;27;20050;-78
2021/03/21 11:00:09;;;;;;;29.25;4.13;;;9.20;67.40;;;;;;5113845;28;20520;-78
2021/03/21 11:02:36;;;;;;;22.92;3.60;;;9.20;68.30;;;;;;5114312;27;20035;-78
2021/03/21 11:05:05;;;;;;;25.85;3.80;;;9.30;67.40;;;;;;5099464;27;20060;-78
2021/03/21 11:07:31;;;;;;;26.80;3.75;;;9.30;67.40;;;;;;5117897;27;20387;-78
2021/03/21 11:10:06;;;;;;;22.92;3.67;;;9.30;67.30;;;;;;5137099;27;20031;-78
2021/03/21 11:12:34;;;;;;;25.65;4.38;;;9.30;68.40;;;;;;5117290;27;20033;-78
2021/03/21 11:15:40;;;;;;;28.83;3.95;;;9.30;67.90;;;;;;5136898;27;20022;-78
2021/03/21 11:18:30;;;;;;;30.40;4.90;;;9.30;68.40;;;;;;5027333;28;20083;-78
2021/03/21 11:21:02;;;;;;;29.70;4.03;;;9.20;68.00;;;;;;5049145;28;20029;-78
2021/03/21 11:23:28;;;;;;;24.35;3.70;;;9.20;68.70;;;;;;5088789;27;20038;-78
2021/03/21 11:25:53;;;;;;;28.52;3.80;;;9.20;69.20;;;;;;5118447;27;20395;-78
2021/03/21 11:28:37;;;;;;;27.10;4.40;;;9.30;68.30;;;;;;5118026;27;20031;-78
2021/03/21 11:31:06;;;;;;;23.45;3.78;;;9.30;67.10;;;;;;5115633;27;20020;-78
2021/03/21 11:33:45;;;;;;;24.37;3.83;;;9.30;66.20;;;;;;5117936;27;20064;-78
2021/03/21 11:36:25;;;;;;;;;;;9.40;66.40;;;;;;5133856;27;20463;-78
2021/03/21 11:38:52;;;;;;;33.85;5.10;;;9.40;67.00;;;;;;5133818;27;19930;-79
2021/03/21 11:41:37;;;;;;;31.65;4.63;;;9.40;67.20;;;;;;5101529;27;20084;-78
2021/03/21 11:44:25;;;;;;;33.78;4.55;;;9.40;67.20;;;;;;5134242;27;20023;-79
2021/03/21 11:46:53;;;;;;;26.17;4.65;;;9.40;67.70;;;;;;5112831;27;20024;-78
2021/03/21 11:49:21;;;;;;;39.30;5.40;;;9.40;68.70;;;;;;5134737;27;20043;-79
2021/03/21 11:51:55;;;;;;;26.27;5.57;;;9.40;68.50;;;;;;5097939;28;20499;-82
2021/03/21 11:54:24;;;;;;;32.85;4.68;;;9.30;69.10;;;;;;5108526;28;20720;-78
2021/03/21 11:56:56;;;;;;;26.88;4.90;;;9.30;68.10;;;;;;5116529;27;20027;-78
2021/03/21 11:59:32;;;;;;;31.90;4.20;;;9.30;67.90;;;;;;5108930;27;20031;-79
2021/03/21 12:01:59;;;;;;;26.80;5.15;;;9.40;67.70;;;;;;5115669;27;20034;-79
2021/03/21 12:04:35;;;;;;;37.20;5.38;;;9.40;66.80;;;;;;5115130;27;20031;-82
2021/03/21 12:07:01;;;;;;;23.83;4.70;;;9.60;65.50;;;;;;5127444;27;20023;-81
2021/03/21 12:09:36;;;;;;;26.73;4.57;;;9.60;64.20;;;;;;5117103;27;20030;-75
2021/03/21 12:12:25;;;;;;;32.72;4.57;;;9.60;62.70;;;;;;5134636;27;20060;-75
2021/03/21 12:14:51;;;;;;;34.03;5.05;;;9.70;62.40;;;;;;5133235;27;20031;-75
2021/03/21 12:17:32;;;;;;;32.53;4.57;;;9.70;61.60;;;;;;5131900;27;20655;-75
2021/03/21 12:20:18;;;;;;;22.23;3.88;;;9.70;62.50;;;;;;5130836;27;20080;-75
2021/03/21 12:22:49;;;;;;;37.33;5.13;;;9.80;62.80;;;;;;5131089;27;20035;-75
2021/03/21 12:25:34;;;;;;;23.83;4.00;;;9.90;61.30;;;;;;5130608;27;20019;-75
2021/03/21 12:28:17;;;;;;;33.08;4.47;;;9.90;61.40;;;;;;5130142;27;20034;-75
2021/03/21 12:30:48;;;;;;;34.25;5.00;;;9.90;62.00;;;;;;5112058;27;20019;-75
2021/03/21 12:33:33;;;;;;;26.58;4.30;;;9.90;62.10;;;;;;5112140;27;20528;-75
2021/03/21 12:36:08;;;;;;;26.52;5.05;;;9.80;61.80;;;;;;5136778;27;20099;-75
2021/03/21 12:38:41;;;;;;;34.88;5.65;;;9.70;62.40;;;;;;5132642;27;20034;-75
2021/03/21 12:41:36;;;;;;;39.08;5.55;;;9.70;62.30;;;;;;5115176;27;20109;-75
2021/03/21 12:44:32;;;;;;;36.33;4.88;;;9.70;62.00;;;;;;5138818;27;20055;-75
2021/03/21 12:47:34;;;;;;;27.83;4.70;;;9.70;61.60;;;;;;5133295;27;20506;-75
2021/03/21 12:50:36;;;;;;;28.83;4.55;;;9.80;62.00;;;;;;5117205;27;20050;-75
2021/03/21 12:53:06;;;;;;;27.73;4.07;;;10.00;60.90;;;;;;5132758;27;20027;-75
2021/03/21 12:55:32;;;;;;;37.08;4.88;;;10.00;59.80;;;;;;5133828;27;20015;-75
2021/03/21 12:57:58;;;;;;;36.97;4.97;;;10.00;60.10;;;;;;5133870;27;20031;-75
2021/03/21 13:00:28;;;;;;;35.10;5.10;;;9.90;60.30;;;;;;5134607;27;20023;-80
2021/03/21 13:02:55;;;;;;;26.02;4.28;;;9.80;61.40;;;;;;5132699;27;20015;-77
2021/03/21 13:05:34;;;;;;;29.15;4.75;;;9.80;61.80;;;;;;5112797;27;20027;-79
2021/03/21 13:08:01;;;;;;;33.13;5.03;;;9.80;62.20;;;;;;5112974;27;20503;-79
2021/03/21 13:10:29;;;;;;;33.97;5.53;;;9.70;62.60;;;;;;5130401;27;21457;-79
2021/03/21 13:12:55;;;;;;;30.02;5.00;;;9.70;63.00;;;;;;5130494;27;20019;-79
2021/03/21 13:15:22;;;;;;;34.00;4.70;;;9.70;62.50;;;;;;5111435;27;20030;-79
2021/03/21 13:17:48;;;;;;;30.73;4.70;;;9.60;61.10;;;;;;5131154;27;20043;-79
2021/03/21 13:20:17;;;;;;;27.48;4.80;;;9.50;61.00;;;;;;5130857;27;20027;-79
2021/03/21 13:22:43;;;;;;;23.20;5.10;;;9.50;60.00;;;;;;5112633;27;20287;-79
2021/03/21 13:25:11;;;;;;;24.65;4.38;;;9.50;61.00;;;;;;5095930;27;20035;-78
2021/03/21 13:27:37;;;;;;;27.42;4.72;;;9.70;60.00;;;;;;5129172;27;20034;-78
2021/03/21 13:30:04;;;;;;;28.83;4.68;;;9.80;61.00;;;;;;5112701;27;20023;-79
2021/03/21 13:32:29;;;;;;;31.55;5.03;;;9.90;60.70;;;;;;5129796;27;20119;-75
2021/03/21 13:34:55;;;;;;;30.20;5.15;;;9.90;60.60;;;;;;5111409;27;20031;-75
2021/03/21 13:37:23;;;;;;;35.42;4.90;;;9.90;59.70;;;;;;5098320;27;20031;-76